createdAt,value
2019-05-06T00:01:34.092Z,12.83
2019-05-06T00:04:37.532Z,9.97
2019-05-06T00:07:44.477Z,11.90
2019-05-06T00:10:48.269Z,12.07
2019-05-06T00:13:54.092Z,10.13
2019-05-06T00:16:58.761Z,8.97
2019-05-06T00:20:04.282Z,11.80
2019-05-06T00:23:24.833Z,14.53
2019-05-06T00:26:56.935Z,11.87
2019-05-06T00:29:59.297Z,12.40
2019-05-06T00:33:04.378Z,14.77
2019-05-06T00:36:08.177Z,13.37
2019-05-06T00:39:40.170Z,12.00
2019-05-06T00:42:57.389Z,11.87
2019-05-06T00:46:01.102Z,25.63
2019-05-06T00:49:04.867Z,14.07
2019-05-06T00:52:08.831Z,14.07
2019-05-06T00:55:13.711Z,8.73
2019-05-06T00:58:17.544Z,11.90
2019-05-06T01:01:27.031Z,14.47
2019-05-06T01:04:26.860Z,11.97
2019-05-06T01:07:30.560Z,12.27
2019-05-06T01:10:34.498Z,12.80
2019-05-06T01:13:54.521Z,15.73
2019-05-06T01:16:58.346Z,14.93
2019-05-06T01:20:04.338Z,13.30
2019-05-06T01:23:08.287Z,14.57
2019-05-06T01:26:14.907Z,12.20
2019-05-06T01:29:18.270Z,13.80
2019-05-06T01:32:23.659Z,14.40
2019-05-06T01:35:27.437Z,18.97
2019-05-06T01:38:35.601Z,12.00
2019-05-06T01:41:48.559Z,15.60
2019-05-06T01:44:53.848Z,14.37
2019-05-06T01:47:57.931Z,9.00
2019-05-06T01:51:03.459Z,17.83
2019-05-06T01:54:07.109Z,15.67
2019-05-06T01:57:10.821Z,18.03
2019-05-06T02:00:14.936Z,10.20
2019-05-06T02:03:18.631Z,15.77
2019-05-06T02:06:24.785Z,12.43
2019-05-06T02:09:27.828Z,10.07
2019-05-06T02:12:31.509Z,15.20
2019-05-06T02:15:35.220Z,16.27
2019-05-06T02:18:39.197Z,13.03
2019-05-06T02:22:17.071Z,16.07
2019-05-06T02:25:24.717Z,12.73
2019-05-06T02:28:28.431Z,13.70
2019-05-06T02:31:54.626Z,16.40
2019-05-06T02:35:15.373Z,17.90
2019-05-06T02:38:35.578Z,21.23
2019-05-06T02:41:33.721Z,19.07
2019-05-06T02:44:37.838Z,15.50
2019-05-06T02:47:53.692Z,13.17
2019-05-06T02:50:59.281Z,18.23
2019-05-06T02:54:03.416Z,14.83
2019-05-06T02:57:07.576Z,16.47
2019-05-06T03:00:15.108Z,18.77
2019-05-06T03:03:18.875Z,13.93
2019-05-06T03:06:23.842Z,18.00
2019-05-06T03:09:27.725Z,13.77
2019-05-06T03:12:33.524Z,13.87
2019-05-06T03:15:36.846Z,12.37
2019-05-06T03:18:43.136Z,12.50
2019-05-06T03:21:57.913Z,13.07
2019-05-06T03:25:13.902Z,11.57
2019-05-06T03:28:17.589Z,13.77
2019-05-06T03:31:25.952Z,14.87
2019-05-06T03:34:49.236Z,14.37
2019-05-06T03:37:33.428Z,25.87
2019-05-06T03:40:41.821Z,17.30
2019-05-06T03:43:43.678Z,16.33
2019-05-06T03:47:09.293Z,16.10
2019-05-06T03:50:13.503Z,21.80
2019-05-06T03:53:17.294Z,20.27
2019-05-06T03:56:23.946Z,17.27
2019-05-06T03:59:33.299Z,19.77
2019-05-06T04:02:39.416Z,16.47
2019-05-06T04:05:43.571Z,26.70
2019-05-06T04:08:48.075Z,17.03
2019-05-06T04:11:54.149Z,14.33
2019-05-06T04:14:57.681Z,20.13
2019-05-06T04:18:06.530Z,15.23
2019-05-06T04:21:18.999Z,21.17
2019-05-06T04:24:30.000Z,17.03
2019-05-06T04:27:38.123Z,20.97
2019-05-06T04:30:42.980Z,19.40
2019-05-06T04:34:05.329Z,18.03
2019-05-06T04:36:53.301Z,20.80
2019-05-06T04:39:57.557Z,21.67
2019-05-06T04:43:03.614Z,23.70
2019-05-06T04:46:07.221Z,22.40
2019-05-06T04:49:14.882Z,18.80
2019-05-06T04:52:17.308Z,24.43
2019-05-06T04:55:22.634Z,19.53
2019-05-06T04:58:27.178Z,23.33
2019-05-06T05:01:33.883Z,20.37
2019-05-06T05:04:37.127Z,18.40
2019-05-06T05:07:42.547Z,20.03
2019-05-06T05:10:53.097Z,21.80
2019-05-06T05:14:14.737Z,18.07
2019-05-06T05:17:25.156Z,18.13
2019-05-06T05:20:37.683Z,15.97
2019-05-06T05:23:34.674Z,20.60
2019-05-06T05:26:39.038Z,20.93
2019-05-06T05:29:42.728Z,20.83
2019-05-06T05:32:46.880Z,16.37
2019-05-06T05:35:52.598Z,18.57
2019-05-06T05:38:56.089Z,23.60
2019-05-06T05:42:05.694Z,16.70
2019-05-06T05:45:10.313Z,15.97
2019-05-06T05:48:24.470Z,16.80
2019-05-06T05:51:28.507Z,16.23
2019-05-06T05:54:33.276Z,20.83
2019-05-06T05:57:37.378Z,20.60
2019-05-06T06:00:42.585Z,19.47
2019-05-06T06:03:46.564Z,16.87
2019-05-06T06:06:51.993Z,16.40
2019-05-06T06:10:03.027Z,16.93
2019-05-06T06:13:06.952Z,16.20
2019-05-06T06:16:38.904Z,13.00
2019-05-06T06:19:50.717Z,14.20
2019-05-06T06:22:56.498Z,11.50
2019-05-06T06:26:03.681Z,11.83
2019-05-06T06:29:06.040Z,14.70
2019-05-06T06:32:18.104Z,14.20
2019-05-06T06:35:27.600Z,9.43
2019-05-06T06:38:56.450Z,15.73
2019-05-06T06:42:00.158Z,16.53
2019-05-06T06:45:04.645Z,12.33
2019-05-06T06:48:08.494Z,13.30
2019-05-06T06:51:12.787Z,16.37
2019-05-06T06:54:16.466Z,15.07
2019-05-06T06:57:36.322Z,8.70
2019-05-06T07:01:16.019Z,13.30
2019-05-06T07:04:28.850Z,12.80
2019-05-06T07:07:43.449Z,11.53
2019-05-06T07:10:45.059Z,8.93
2019-05-06T07:13:55.574Z,11.40
2019-05-06T07:16:59.536Z,9.40
2019-05-06T07:20:06.921Z,13.03
2019-05-06T07:23:27.184Z,11.80
2019-05-06T07:26:35.939Z,10.00
2019-05-06T07:29:39.885Z,8.63
2019-05-06T07:32:43.704Z,9.73
2019-05-06T07:35:48.176Z,8.73
2019-05-06T07:38:52.650Z,10.13
2019-05-06T07:41:59.255Z,10.97
2019-05-06T07:45:15.502Z,9.30
2019-05-06T07:48:19.222Z,8.13
2019-05-06T07:51:23.836Z,13.23
2019-05-06T07:54:27.834Z,9.07
2019-05-06T07:57:32.992Z,7.53
2019-05-06T08:00:37.646Z,9.10
2019-05-06T08:03:42.756Z,10.23
2019-05-06T08:06:46.700Z,10.77
2019-05-06T08:09:52.426Z,12.00
2019-05-06T08:12:55.896Z,7.00
2019-05-06T08:15:59.607Z,8.17
2019-05-06T08:19:03.516Z,6.63
2019-05-06T08:22:12.002Z,7.20
2019-05-06T08:25:16.026Z,9.10
2019-05-06T08:28:22.394Z,7.83
2019-05-06T08:31:25.476Z,9.50
2019-05-06T08:34:29.172Z,7.27
2019-05-06T08:37:34.851Z,8.70
2019-05-06T08:40:38.603Z,6.57
2019-05-06T08:43:42.371Z,5.67
2019-05-06T08:46:46.389Z,7.77
2019-05-06T08:50:02.523Z,5.40
2019-05-06T08:53:23.989Z,8.00
2019-05-06T08:56:25.450Z,12.13
2019-05-06T08:59:29.160Z,9.07
2019-05-06T09:02:32.853Z,10.53
2019-05-06T09:05:36.552Z,9.57
2019-05-06T09:08:42.838Z,8.93
2019-05-06T09:11:46.014Z,9.43
2019-05-06T09:14:49.719Z,6.50
2019-05-06T09:17:53.402Z,7.43
2019-05-06T09:20:57.444Z,11.40
2019-05-06T09:24:02.250Z,9.03
2019-05-06T09:27:42.173Z,9.27
2019-05-06T09:30:52.414Z,9.10
2019-05-06T09:34:02.787Z,7.67
2019-05-06T09:37:15.341Z,6.27
2019-05-06T09:40:19.215Z,9.60
2019-05-06T09:43:23.187Z,9.30
2019-05-06T09:46:26.901Z,9.17
2019-05-06T09:49:32.944Z,9.57
2019-05-06T09:52:36.736Z,10.80
2019-05-06T09:55:46.035Z,12.83
2019-05-06T09:58:49.814Z,10.33
2019-05-06T10:01:53.746Z,9.43
2019-05-06T10:04:57.742Z,9.80
2019-05-06T10:08:03.328Z,8.97
2019-05-06T10:11:07.215Z,5.53
2019-05-06T10:14:12.907Z,9.43
2019-05-06T10:17:16.475Z,7.17
2019-05-06T10:20:22.269Z,7.30
2019-05-06T10:23:25.613Z,8.63
2019-05-06T10:26:33.325Z,11.40
2019-05-06T10:29:45.131Z,6.63
2019-05-06T10:32:52.892Z,8.90
2019-05-06T10:36:02.537Z,8.77
2019-05-06T10:39:10.081Z,7.50
2019-05-06T10:42:17.607Z,5.03
2019-05-06T10:45:28.267Z,4.20
2019-05-06T10:48:31.983Z,3.53
2019-05-06T10:51:45.640Z,3.63
2019-05-06T10:54:49.695Z,3.80
2019-05-06T10:57:53.404Z,2.93
2019-05-06T11:01:08.830Z,2.67
2019-05-06T11:04:12.535Z,3.67
2019-05-06T11:07:28.266Z,3.60
2019-05-06T11:10:27.893Z,3.83
2019-05-06T11:13:27.279Z,6.07
2019-05-06T11:16:33.125Z,5.27
2019-05-06T11:19:36.405Z,9.87
2019-05-06T11:22:40.116Z,4.50
2019-05-06T11:25:43.950Z,3.13
2019-05-06T11:28:52.060Z,7.07
2019-05-06T11:32:02.507Z,4.53
2019-05-06T11:35:12.326Z,6.40
2019-05-06T11:38:17.581Z,3.60
2019-05-06T11:41:23.341Z,3.73
2019-05-06T11:44:27.006Z,4.50
2019-05-06T11:47:32.464Z,4.57
2019-05-06T11:50:36.681Z,7.43
2019-05-06T11:53:40.377Z,6.23
2019-05-06T11:56:50.660Z,3.17
2019-05-06T11:59:49.701Z,4.57
2019-05-06T12:02:53.742Z,6.50
2019-05-06T12:05:57.440Z,6.30
2019-05-06T12:09:06.072Z,6.63
2019-05-06T12:12:06.865Z,4.67
2019-05-06T12:15:12.570Z,2.03
2019-05-06T12:18:16.404Z,5.10
2019-05-06T12:21:20.103Z,4.83
2019-05-06T12:24:23.826Z,5.67
2019-05-06T12:27:46.004Z,5.23
2019-05-06T12:30:52.231Z,7.10
2019-05-06T12:33:55.511Z,5.03
2019-05-06T12:37:02.690Z,4.13
2019-05-06T12:40:06.818Z,3.00
2019-05-06T12:43:28.703Z,3.07
2019-05-06T12:46:38.878Z,6.30
2019-05-06T12:49:42.799Z,4.60
2019-05-06T12:52:46.577Z,4.00
2019-05-06T12:55:52.020Z,2.13
2019-05-06T12:58:56.063Z,3.23
2019-05-06T13:02:02.423Z,3.47
2019-05-06T13:05:05.835Z,3.90
2019-05-06T13:08:09.918Z,5.53
2019-05-06T13:11:13.673Z,3.97
2019-05-06T13:14:17.474Z,4.47
2019-05-06T13:17:26.249Z,2.13
2019-05-06T13:20:34.380Z,7.70
2019-05-06T13:23:47.933Z,5.67
2019-05-06T13:26:52.840Z,6.03
2019-05-06T13:29:56.823Z,3.80
2019-05-06T13:33:07.313Z,6.10
2019-05-06T13:36:13.167Z,4.60
2019-05-06T13:39:17.536Z,5.07
2019-05-06T13:42:22.896Z,7.70
2019-05-06T13:45:26.615Z,6.03
2019-05-06T13:48:35.283Z,5.93
2019-05-06T13:51:39.674Z,8.67
2019-05-06T13:54:58.914Z,7.63
2019-05-06T13:58:12.560Z,7.33
2019-05-06T14:01:32.547Z,9.87
2019-05-06T14:04:45.853Z,5.10
2019-05-06T14:08:05.869Z,7.03
2019-05-06T14:11:09.622Z,8.50
2019-05-06T14:14:14.029Z,9.30
2019-05-06T14:17:17.726Z,6.83
2019-05-06T14:20:22.076Z,8.33
2019-05-06T14:23:25.954Z,8.80
2019-05-06T14:26:39.236Z,10.67
2019-05-06T14:29:53.302Z,6.83
2019-05-06T14:32:57.234Z,6.83
2019-05-06T14:36:03.255Z,8.27
2019-05-06T14:39:12.544Z,8.57
2019-05-06T14:42:15.885Z,9.37
2019-05-06T14:45:22.016Z,9.27
2019-05-06T14:48:25.012Z,9.67
2019-05-06T14:51:28.713Z,11.27
2019-05-06T14:54:33.140Z,9.43
2019-05-06T14:57:37.393Z,9.37
2019-05-06T15:00:42.542Z,11.63
2019-05-06T15:03:46.381Z,8.73
2019-05-06T15:06:50.073Z,12.70
2019-05-06T15:10:08.029Z,12.70
2019-05-06T15:12:59.277Z,9.80
2019-05-06T15:16:03.690Z,14.37
2019-05-06T15:19:08.048Z,9.67
2019-05-06T15:22:13.000Z,10.20
2019-05-06T15:25:17.104Z,14.60
2019-05-06T15:28:22.638Z,12.33
2019-05-06T15:31:42.306Z,12.67
2019-05-06T15:34:56.253Z,11.73
2019-05-06T15:38:02.676Z,18.43
2019-05-06T15:41:06.389Z,8.80
2019-05-06T15:44:12.478Z,9.00
2019-05-06T15:47:15.764Z,9.17
2019-05-06T15:50:20.051Z,12.60
2019-05-06T15:53:23.746Z,9.47
2019-05-06T15:56:27.450Z,9.43
2019-05-06T15:59:33.239Z,12.03
2019-05-06T16:02:36.751Z,8.43
2019-05-06T16:05:40.451Z,8.43
2019-05-06T16:08:44.147Z,7.37
2019-05-06T16:11:48.120Z,8.33
2019-05-06T16:14:53.087Z,11.13
2019-05-06T16:17:57.282Z,12.43
2019-05-06T16:21:02.963Z,7.43
2019-05-06T16:24:17.398Z,10.33
2019-05-06T16:27:22.976Z,8.80
2019-05-06T16:30:26.903Z,6.97
2019-05-06T16:33:32.902Z,7.37
2019-05-06T16:36:36.319Z,7.97
2019-05-06T16:39:40.352Z,6.80
2019-05-06T16:42:45.898Z,8.27
2019-05-06T16:45:52.940Z,9.20
2019-05-06T16:48:55.535Z,8.57
2019-05-06T16:51:59.563Z,7.13
2019-05-06T16:55:03.540Z,7.57
2019-05-06T16:58:11.808Z,6.27
2019-05-06T17:01:15.595Z,6.27
2019-05-06T17:04:41.838Z,7.47
2019-05-06T17:07:45.882Z,7.03
2019-05-06T17:10:49.583Z,6.97
2019-05-06T17:13:53.279Z,6.37
2019-05-06T17:16:57.397Z,5.37
2019-05-06T17:20:03.083Z,7.87
2019-05-06T17:23:06.529Z,9.50
2019-05-06T17:26:10.250Z,8.20
2019-05-06T17:29:38.786Z,5.30
2019-05-06T17:32:45.877Z,7.17
2019-05-06T17:35:49.609Z,8.63
2019-05-06T17:38:53.888Z,7.80
2019-05-06T17:41:57.598Z,8.67
2019-05-06T17:45:03.983Z,5.60
2019-05-06T17:48:14.191Z,9.43
2019-05-06T17:51:19.963Z,12.00
2019-05-06T17:54:25.897Z,11.20
2019-05-06T17:57:29.168Z,6.53
2019-05-06T18:00:32.879Z,11.10
2019-05-06T18:03:36.587Z,12.00
2019-05-06T18:06:42.441Z,5.57
2019-05-06T18:09:45.707Z,10.80
2019-05-06T18:12:49.415Z,12.73
2019-05-06T18:15:53.451Z,11.30
2019-05-06T18:18:57.169Z,10.80
2019-05-06T18:22:02.569Z,8.13
2019-05-06T18:25:06.653Z,9.73
2019-05-06T18:28:12.273Z,7.83
2019-05-06T18:31:16.079Z,9.40
2019-05-06T18:34:19.785Z,11.57
2019-05-06T18:37:23.535Z,9.27
2019-05-06T18:40:27.181Z,8.03
2019-05-06T18:43:33.241Z,7.77
2019-05-06T18:46:36.402Z,13.00
2019-05-06T18:49:42.434Z,7.13
2019-05-06T18:52:45.553Z,8.13
2019-05-06T18:55:49.300Z,7.87
2019-05-06T18:58:53.264Z,8.90
2019-05-06T19:01:57.414Z,10.10
2019-05-06T19:05:15.938Z,9.10
2019-05-06T19:08:42.235Z,10.33
2019-05-06T19:11:46.065Z,9.10
2019-05-06T19:14:49.766Z,7.87
2019-05-06T19:17:53.709Z,11.70
2019-05-06T19:20:57.413Z,6.63
2019-05-06T19:24:02.786Z,12.17
2019-05-06T19:27:06.628Z,9.53
2019-05-06T19:30:12.827Z,11.53
2019-05-06T19:33:16.579Z,10.10
2019-05-06T19:36:20.292Z,11.30
2019-05-06T19:39:24.684Z,16.00
2019-05-06T19:42:42.230Z,8.23
2019-05-06T19:45:34.645Z,9.97
2019-05-06T19:48:38.410Z,11.07
2019-05-06T19:51:42.868Z,7.03
2019-05-06T19:54:46.611Z,6.47
2019-05-06T19:57:52.508Z,8.77
2019-05-06T20:00:56.443Z,10.30
2019-05-06T20:04:02.330Z,8.83
2019-05-06T20:07:13.272Z,10.10
2019-05-06T20:10:27.523Z,8.37
2019-05-06T20:13:32.256Z,8.50
2019-05-06T20:16:36.097Z,10.67
2019-05-06T20:19:39.870Z,11.87
2019-05-06T20:22:44.004Z,8.17
2019-05-06T20:25:47.736Z,9.73
2019-05-06T20:28:52.616Z,10.77
2019-05-06T20:31:56.421Z,8.40
2019-05-06T20:35:00.107Z,8.90
2019-05-06T20:38:03.905Z,9.70
2019-05-06T20:41:07.629Z,9.53
2019-05-06T20:44:12.391Z,8.33
2019-05-06T20:47:16.101Z,8.00
2019-05-06T20:50:19.919Z,12.43
2019-05-06T20:53:23.955Z,7.60
2019-05-06T20:56:27.658Z,12.20
2019-05-06T20:59:32.226Z,10.17
2019-05-06T21:02:36.039Z,8.70
2019-05-06T21:05:39.730Z,9.07
2019-05-06T21:08:43.429Z,6.53
2019-05-06T21:11:47.130Z,11.07
2019-05-06T21:14:50.872Z,11.57
2019-05-06T21:17:54.572Z,12.07
2019-05-06T21:20:58.586Z,6.97
2019-05-06T21:24:02.278Z,12.63
2019-05-06T21:27:06.057Z,8.43
2019-05-06T21:30:10.506Z,10.20
2019-05-06T21:33:14.210Z,7.77
2019-05-06T21:36:18.385Z,10.67
2019-05-06T21:39:22.512Z,9.47
2019-05-06T21:42:26.250Z,9.63
2019-05-06T21:45:29.978Z,7.73
2019-05-06T21:48:33.987Z,11.20
2019-05-06T21:51:37.671Z,8.87
2019-05-06T21:54:43.449Z,8.30
2019-05-06T21:57:46.793Z,8.10
2019-05-06T22:01:06.436Z,8.03
2019-05-06T22:04:12.787Z,8.53
2019-05-06T22:07:15.982Z,12.30
2019-05-06T22:10:19.689Z,7.63
2019-05-06T22:13:23.397Z,8.47
2019-05-06T22:16:27.086Z,9.80
2019-05-06T22:19:32.038Z,8.87
2019-05-06T22:22:36.086Z,8.47
2019-05-06T22:25:39.789Z,11.73
2019-05-06T22:28:43.506Z,9.80
2019-05-06T22:31:47.209Z,9.33
2019-05-06T22:34:50.919Z,8.47
2019-05-06T22:37:54.628Z,9.23
2019-05-06T22:40:58.336Z,9.77
2019-05-06T22:44:13.342Z,10.77
2019-05-06T22:47:07.492Z,8.63
2019-05-06T22:50:13.043Z,9.90
2019-05-06T22:53:16.942Z,8.67
2019-05-06T22:56:22.631Z,6.27
2019-05-06T22:59:26.090Z,8.37
2019-05-06T23:02:45.687Z,9.40
2019-05-06T23:05:49.387Z,10.67
2019-05-06T23:08:53.332Z,9.10
2019-05-06T23:11:57.042Z,12.80
2019-05-06T23:15:02.693Z,11.47
2019-05-06T23:18:06.329Z,10.97
2019-05-06T23:21:11.779Z,7.80
2019-05-06T23:24:15.453Z,9.30
2019-05-06T23:27:19.162Z,11.03
2019-05-06T23:30:23.601Z,8.77
2019-05-06T23:33:27.488Z,11.67
2019-05-06T23:37:12.903Z,8.13
2019-05-06T23:40:52.470Z,10.40
2019-05-06T23:44:44.974Z,9.40
2019-05-06T23:48:13.571Z,18.90
2019-05-06T23:51:53.299Z,10.77
2019-05-06T23:55:33.066Z,8.77
2019-05-06T23:58:36.774Z,9.37
